Terminal Aerodrome Forecast
Issued by NWS

Home | Current Version | Previous Version | Text Only | Print | Product List | Glossary On
Versions: 1 2 3 4 5 6 7 8 9 10 11 12 13
000
FTUS44 KTSA 211136
TAFMLC
TAF
KMLC 211136Z 2112/2212 11006KT P6SM BKN080
     FM211600 10007KT 5SM -RA BR VCTS OVC050CB
     FM211900 07005KT 4SM -RA BR VCTS OVC025CB
     FM220500 35006KT 6SM -SHRA BR BKN008 OVC012=

USA.gov is the U.S. government's official web portal to all federal, state and local government web resources and services.